createdAt,value
2019-01-08T00:00:13.368Z,88.52
2019-01-08T00:02:45.128Z,88.98
2019-01-08T00:05:15.453Z,89.56
2019-01-08T00:07:45.648Z,89.96
2019-01-08T00:10:15.951Z,90.10
2019-01-08T00:12:46.236Z,90.11
2019-01-08T00:15:16.476Z,90.20
2019-01-08T00:17:46.835Z,90.07
2019-01-08T00:20:16.977Z,90.38
2019-01-08T00:22:47.201Z,90.80
2019-01-08T00:25:17.444Z,90.54
2019-01-08T00:27:47.706Z,90.60
2019-01-08T00:30:19.126Z,90.49
2019-01-08T00:32:49.627Z,90.58
2019-01-08T00:35:19.828Z,89.58
2019-01-08T00:37:50.127Z,89.96
2019-01-08T00:40:20.232Z,89.48
2019-01-08T00:42:50.485Z,89.53
2019-01-08T00:45:20.902Z,89.86
2019-01-08T00:47:51.376Z,89.82
2019-01-08T00:50:21.828Z,89.52
2019-01-08T00:52:52.125Z,89.95
2019-01-08T00:55:22.398Z,89.62
2019-01-08T00:57:52.823Z,89.47
2019-01-08T01:00:22.947Z,89.82
2019-01-08T01:02:53.192Z,90.04
2019-01-08T01:05:23.327Z,89.84
2019-01-08T01:07:53.503Z,89.60
2019-01-08T01:10:23.616Z,89.34
2019-01-08T01:12:54.041Z,90.01
2019-01-08T01:15:24.123Z,89.79
2019-01-08T01:17:54.430Z,89.70
2019-01-08T01:20:24.617Z,89.48
2019-01-08T01:22:54.856Z,89.43
2019-01-08T01:25:25.073Z,89.30
2019-01-08T01:27:55.290Z,88.44
2019-01-08T01:30:25.427Z,88.66
2019-01-08T01:32:55.659Z,89.10
2019-01-08T01:35:28.236Z,88.99
2019-01-08T01:37:58.632Z,88.66
2019-01-08T01:40:28.796Z,88.91
2019-01-08T01:43:00.223Z,88.89
2019-01-08T01:45:30.366Z,89.01
2019-01-08T01:48:00.529Z,88.65
2019-01-08T01:50:31.934Z,88.91
2019-01-08T01:53:02.247Z,88.45
2019-01-08T01:55:32.406Z,88.66
2019-01-08T01:58:03.166Z,89.03
2019-01-08T02:00:33.488Z,88.90
2019-01-08T02:03:03.827Z,89.23
2019-01-08T02:05:34.012Z,88.90
2019-01-08T02:08:04.228Z,89.24
2019-01-08T02:10:34.331Z,89.27
2019-01-08T02:13:04.467Z,89.09
2019-01-08T02:15:34.633Z,89.25
2019-01-08T02:18:04.921Z,89.15
2019-01-08T02:20:35.030Z,89.28
2019-01-08T02:23:05.286Z,89.32
2019-01-08T02:25:35.651Z,88.89
2019-01-08T02:28:05.844Z,88.52
2019-01-08T02:30:36.010Z,88.93
2019-01-08T02:33:06.229Z,87.86
2019-01-08T02:35:36.457Z,88.17
2019-01-08T02:38:06.609Z,87.96
2019-01-08T02:40:36.928Z,88.08
2019-01-08T02:43:07.046Z,87.81
2019-01-08T02:45:37.598Z,87.86
2019-01-08T02:48:08.155Z,88.15
2019-01-08T02:50:38.494Z,88.27
2019-01-08T02:53:08.716Z,87.75
2019-01-08T02:55:38.849Z,88.03
2019-01-08T02:58:08.960Z,88.11
2019-01-08T03:00:39.242Z,87.72
2019-01-08T03:03:09.602Z,87.96
2019-01-08T03:05:39.668Z,88.29
2019-01-08T03:08:09.769Z,88.12
2019-01-08T03:10:39.832Z,88.02
2019-01-08T03:13:10.031Z,88.20
2019-01-08T03:15:40.293Z,88.56
2019-01-08T03:18:10.382Z,88.27
2019-01-08T03:20:40.612Z,88.59
2019-01-08T03:23:10.831Z,89.05
2019-01-08T03:25:41.155Z,89.52
2019-01-08T03:28:12.388Z,90.33
2019-01-08T03:30:43.762Z,90.52
2019-01-08T03:33:13.949Z,91.04
2019-01-08T03:35:44.220Z,90.96
2019-01-08T03:38:15.309Z,91.11
2019-01-08T03:40:45.396Z,91.69
2019-01-08T03:43:15.385Z,91.44
2019-01-08T03:45:45.569Z,91.55
2019-01-08T03:48:15.791Z,91.76
2019-01-08T03:50:46.004Z,91.98
2019-01-08T03:53:16.123Z,92.62
2019-01-08T03:55:46.287Z,93.01
2019-01-08T03:58:16.510Z,93.33
2019-01-08T04:00:46.664Z,93.65
2019-01-08T04:03:17.019Z,93.97
2019-01-08T04:05:47.333Z,93.50
2019-01-08T04:08:17.471Z,92.87
2019-01-08T04:10:47.574Z,92.97
2019-01-08T04:13:17.773Z,92.43
2019-01-08T04:15:47.890Z,92.67
2019-01-08T04:18:18.157Z,92.93
2019-01-08T04:20:48.474Z,93.12
2019-01-08T04:23:18.685Z,93.96
2019-01-08T04:25:48.793Z,94.50
2019-01-08T04:28:18.948Z,94.92
2019-01-08T04:30:49.192Z,95.41
2019-01-08T04:33:19.482Z,95.40
2019-01-08T04:35:49.632Z,96.04
2019-01-08T04:38:19.795Z,96.17
2019-01-08T04:40:49.976Z,95.83
2019-01-08T04:43:20.282Z,95.76
2019-01-08T04:45:50.324Z,95.36
2019-01-08T04:48:20.479Z,95.17
2019-01-08T04:50:50.601Z,94.80
2019-01-08T04:53:20.758Z,94.31
2019-01-08T04:55:51.080Z,94.49
2019-01-08T04:58:21.226Z,94.32
2019-01-08T05:00:51.471Z,93.41
2019-01-08T05:03:21.806Z,93.78
2019-01-08T05:05:53.538Z,93.93
2019-01-08T05:08:24.161Z,93.52
2019-01-08T05:10:55.301Z,93.44
2019-01-08T05:13:25.464Z,93.39
2019-01-08T05:15:55.610Z,93.42
2019-01-08T05:18:28.990Z,93.49
2019-01-08T05:20:59.060Z,92.82
2019-01-08T05:23:30.238Z,92.94
2019-01-08T05:26:00.332Z,93.59
2019-01-08T05:28:30.459Z,93.33
2019-01-08T05:31:00.720Z,93.12
2019-01-08T05:33:30.883Z,93.81
2019-01-08T05:36:01.007Z,93.87
2019-01-08T05:38:31.204Z,94.06
2019-01-08T05:41:01.518Z,93.83
2019-01-08T05:43:31.928Z,93.71
2019-01-08T05:46:02.251Z,93.82
2019-01-08T05:48:32.513Z,93.77
2019-01-08T05:51:03.038Z,93.42
2019-01-08T05:53:33.413Z,93.85
2019-01-08T05:56:03.893Z,94.16
2019-01-08T05:58:33.977Z,94.62
2019-01-08T06:01:04.310Z,94.38
2019-01-08T06:03:34.439Z,95.28
2019-01-08T06:06:04.578Z,95.48
2019-01-08T06:08:34.720Z,95.71
2019-01-08T06:11:04.992Z,95.82
2019-01-08T06:13:35.208Z,95.40
2019-01-08T06:16:05.350Z,95.11
2019-01-08T06:18:35.711Z,94.83
2019-01-08T06:21:05.881Z,94.72
2019-01-08T06:23:36.148Z,94.81
2019-01-08T06:26:06.311Z,94.49
2019-01-08T06:28:36.899Z,94.44
2019-01-08T06:31:07.508Z,94.28
2019-01-08T06:33:37.732Z,94.16
2019-01-08T06:36:07.949Z,94.25
2019-01-08T06:38:38.326Z,94.45
2019-01-08T06:41:08.607Z,94.43
2019-01-08T06:43:39.307Z,94.81
2019-01-08T06:46:09.537Z,94.98
2019-01-08T06:48:39.838Z,94.87
2019-01-08T06:51:10.038Z,94.77
2019-01-08T06:53:40.274Z,94.68
2019-01-08T06:56:10.523Z,94.80
2019-01-08T06:58:40.688Z,94.99
2019-01-08T07:01:10.967Z,94.81
2019-01-08T07:03:41.095Z,94.89
2019-01-08T07:06:13.329Z,95.92
2019-01-08T07:08:43.561Z,96.70
2019-01-08T07:11:13.748Z,96.81
2019-01-08T07:13:43.943Z,96.94
2019-01-08T07:16:14.142Z,96.37
2019-01-08T07:18:44.236Z,96.26
2019-01-08T07:21:14.560Z,96.63
2019-01-08T07:23:45.753Z,96.14
2019-01-08T07:26:15.908Z,96.22
2019-01-08T07:28:46.184Z,95.66
2019-01-08T07:31:16.395Z,95.16
2019-01-08T07:33:46.656Z,95.21
2019-01-08T07:36:16.939Z,94.96
2019-01-08T07:38:47.329Z,95.10
2019-01-08T07:41:17.890Z,94.80
2019-01-08T07:43:48.207Z,94.56
2019-01-08T07:46:18.561Z,94.43
2019-01-08T07:48:48.787Z,94.28
2019-01-08T07:51:19.028Z,93.78
2019-01-08T07:53:49.725Z,93.73
2019-01-08T07:56:20.087Z,93.58
2019-01-08T07:58:50.213Z,93.48
2019-01-08T08:01:20.499Z,93.30
2019-01-08T08:03:50.743Z,93.55
2019-01-08T08:06:20.987Z,93.74
2019-01-08T08:08:51.136Z,93.74
2019-01-08T08:11:21.279Z,93.53
2019-01-08T08:13:51.431Z,93.04
2019-01-08T08:16:21.648Z,93.03
2019-01-08T08:18:51.879Z,92.89
2019-01-08T08:21:22.063Z,92.77
2019-01-08T08:23:52.377Z,92.63
2019-01-08T08:26:22.603Z,92.59
2019-01-08T08:28:52.748Z,92.35
2019-01-08T08:31:22.948Z,92.78
2019-01-08T08:33:53.164Z,93.02
2019-01-08T08:36:23.403Z,94.12
2019-01-08T08:38:53.493Z,94.86
2019-01-08T08:41:23.779Z,95.51
2019-01-08T08:43:53.885Z,96.41
2019-01-08T08:46:24.029Z,96.76
2019-01-08T08:48:54.410Z,97.04
2019-01-08T08:51:24.798Z,97.63
2019-01-08T08:53:55.185Z,97.92
2019-01-08T08:56:25.596Z,97.74
2019-01-08T08:58:55.908Z,97.58
2019-01-08T09:01:26.329Z,97.39
2019-01-08T09:03:56.699Z,97.52
2019-01-08T09:06:26.845Z,97.31
2019-01-08T09:08:57.186Z,97.53
2019-01-08T09:11:27.560Z,97.53
2019-01-08T09:13:58.050Z,97.62
2019-01-08T09:16:28.291Z,97.65
2019-01-08T09:18:58.936Z,97.74
2019-01-08T09:21:29.544Z,97.55
2019-01-08T09:23:59.768Z,97.44
2019-01-08T09:26:30.122Z,97.22
2019-01-08T09:29:00.251Z,97.23
2019-01-08T09:31:32.268Z,96.54
2019-01-08T09:34:02.638Z,95.57
2019-01-08T09:36:32.885Z,95.29
2019-01-08T09:39:04.653Z,94.68
2019-01-08T09:41:35.123Z,95.14
2019-01-08T09:44:05.374Z,94.48
2019-01-08T09:46:35.720Z,93.53
2019-01-08T09:49:05.857Z,93.12
2019-01-08T09:51:36.202Z,92.68
2019-01-08T09:54:06.338Z,92.60
2019-01-08T09:56:36.464Z,92.51
2019-01-08T09:59:06.619Z,92.53
2019-01-08T10:01:36.809Z,92.51
2019-01-08T10:04:07.004Z,92.22
2019-01-08T10:06:37.433Z,92.63
2019-01-08T10:09:08.314Z,92.90
2019-01-08T10:11:38.550Z,92.91
2019-01-08T10:14:08.738Z,92.80
2019-01-08T10:16:39.180Z,92.84
2019-01-08T10:19:09.325Z,93.24
2019-01-08T10:21:39.545Z,93.52
2019-01-08T10:24:09.677Z,93.59
2019-01-08T10:26:40.874Z,93.03
2019-01-08T10:29:11.202Z,93.27
2019-01-08T10:31:41.363Z,92.91
2019-01-08T10:34:11.865Z,92.24
2019-01-08T10:36:42.318Z,91.67
2019-01-08T10:39:12.443Z,90.14
2019-01-08T10:41:44.740Z,89.40
2019-01-08T10:44:15.250Z,89.30
2019-01-08T10:46:45.525Z,87.78
2019-01-08T10:49:16.204Z,87.23
2019-01-08T10:51:46.480Z,87.22
2019-01-08T10:54:16.798Z,87.12
2019-01-08T10:56:47.316Z,87.75
2019-01-08T10:59:17.734Z,87.54
2019-01-08T11:01:48.248Z,87.48
2019-01-08T11:04:18.793Z,87.51
2019-01-08T11:06:49.973Z,87.56
2019-01-08T11:09:21.313Z,85.81
2019-01-08T11:11:52.036Z,84.90
2019-01-08T11:14:22.189Z,82.07
2019-01-08T11:16:52.510Z,80.28
2019-01-08T11:19:22.686Z,80.48
2019-01-08T11:21:52.886Z,80.01
2019-01-08T11:24:23.080Z,78.16
2019-01-08T11:26:53.562Z,79.21
2019-01-08T11:29:23.761Z,79.71
2019-01-08T11:31:53.913Z,79.60
2019-01-08T11:34:24.534Z,79.11
2019-01-08T11:36:54.918Z,78.48
2019-01-08T11:39:25.301Z,78.68
2019-01-08T11:41:55.443Z,78.66
2019-01-08T11:44:25.695Z,78.78
2019-01-08T11:46:57.003Z,78.64
2019-01-08T11:49:27.213Z,77.69
2019-01-08T11:51:57.433Z,77.59
2019-01-08T11:54:27.585Z,77.58
2019-01-08T11:56:57.786Z,78.23
2019-01-08T11:59:27.888Z,78.35
2019-01-08T12:02:00.934Z,73.87
2019-01-08T12:04:31.273Z,69.33
2019-01-08T12:07:01.557Z,69.22
2019-01-08T12:09:31.956Z,70.53
2019-01-08T12:12:02.700Z,70.78
2019-01-08T12:14:32.924Z,71.79
2019-01-08T12:17:03.100Z,73.30
2019-01-08T12:19:33.233Z,73.65
2019-01-08T12:22:03.584Z,72.24
2019-01-08T12:24:33.732Z,73.71
2019-01-08T12:27:04.025Z,72.90
2019-01-08T12:29:34.184Z,73.31
2019-01-08T12:32:06.222Z,73.52
2019-01-08T12:34:36.368Z,73.44
2019-01-08T12:37:06.667Z,72.37
2019-01-08T12:39:36.815Z,72.71
2019-01-08T12:42:07.154Z,72.49
2019-01-08T12:44:37.298Z,73.57
2019-01-08T12:47:07.436Z,72.51
2019-01-08T12:49:37.666Z,72.84
2019-01-08T12:52:08.044Z,71.71
2019-01-08T12:54:38.291Z,71.01
2019-01-08T12:57:08.437Z,70.31
2019-01-08T12:59:38.630Z,71.45
2019-01-08T13:02:14.505Z,69.16
2019-01-08T13:04:40.906Z,69.00
2019-01-08T13:07:11.050Z,66.66
2019-01-08T13:09:41.170Z,65.87
2019-01-08T13:12:11.324Z,65.71
2019-01-08T13:14:41.570Z,66.82
2019-01-08T13:17:11.925Z,68.26
2019-01-08T13:19:42.143Z,69.05
2019-01-08T13:22:12.424Z,69.24
2019-01-08T13:24:42.935Z,70.29
2019-01-08T13:27:13.294Z,70.37
2019-01-08T13:29:43.630Z,70.54
2019-01-08T13:32:13.908Z,69.56
2019-01-08T13:34:44.236Z,69.36
2019-01-08T13:37:14.471Z,68.14
2019-01-08T13:39:45.046Z,68.52
2019-01-08T13:42:15.426Z,68.47
2019-01-08T13:44:45.655Z,69.47
2019-01-08T13:47:16.025Z,70.34
2019-01-08T13:49:46.709Z,71.98
2019-01-08T13:52:17.374Z,72.18
2019-01-08T13:54:47.754Z,72.18
2019-01-08T13:57:17.986Z,73.62
2019-01-08T13:59:48.102Z,73.04
2019-01-08T14:02:18.341Z,73.86
2019-01-08T14:04:48.495Z,74.33
2019-01-08T14:07:18.925Z,74.70
2019-01-08T14:09:49.381Z,76.71
2019-01-08T14:12:19.857Z,77.37
2019-01-08T14:14:50.098Z,78.75
2019-01-08T14:17:20.560Z,79.31
2019-01-08T14:19:50.815Z,80.55
2019-01-08T14:22:21.365Z,82.05
2019-01-08T14:24:54.877Z,82.02
2019-01-08T14:27:25.153Z,82.76
2019-01-08T14:29:55.385Z,83.31
2019-01-08T14:32:25.626Z,83.36
2019-01-08T14:34:55.850Z,84.53
2019-01-08T14:37:26.106Z,84.51
2019-01-08T14:39:56.393Z,84.35
2019-01-08T14:42:26.846Z,83.69
2019-01-08T14:44:57.301Z,84.85
2019-01-08T14:47:27.391Z,85.44
2019-01-08T14:49:57.736Z,85.84
2019-01-08T14:52:27.922Z,86.15
2019-01-08T14:54:58.462Z,86.04
2019-01-08T14:57:28.687Z,86.71
2019-01-08T15:00:00.768Z,86.49
2019-01-08T15:02:31.046Z,86.49
2019-01-08T15:05:04.465Z,86.32
2019-01-08T15:07:34.875Z,86.51
2019-01-08T15:10:05.855Z,86.30
2019-01-08T15:12:36.262Z,87.13
2019-01-08T15:15:07.275Z,87.50
2019-01-08T15:17:37.746Z,87.21
2019-01-08T15:20:08.984Z,87.70
2019-01-08T15:22:39.381Z,88.05
2019-01-08T15:25:09.732Z,88.47
2019-01-08T15:27:39.959Z,88.97
2019-01-08T15:30:11.186Z,89.07
2019-01-08T15:32:41.668Z,89.67
2019-01-08T15:35:12.295Z,90.52
2019-01-08T15:37:42.439Z,90.69
2019-01-08T15:40:12.711Z,91.12
2019-01-08T15:42:42.876Z,91.27
2019-01-08T15:45:13.100Z,91.21
2019-01-08T15:47:44.241Z,91.77
2019-01-08T15:50:14.531Z,91.33
2019-01-08T15:52:45.151Z,91.41
2019-01-08T15:55:15.555Z,92.20
2019-01-08T15:57:45.827Z,91.97
2019-01-08T16:00:16.021Z,92.80
2019-01-08T16:02:46.466Z,92.64
2019-01-08T16:05:17.959Z,92.91
2019-01-08T16:07:48.407Z,93.10
2019-01-08T16:10:18.877Z,93.23
2019-01-08T16:12:49.181Z,93.51
2019-01-08T16:15:19.947Z,93.62
2019-01-08T16:17:50.266Z,93.84
2019-01-08T16:20:20.714Z,93.55
2019-01-08T16:22:51.280Z,93.68
2019-01-08T16:25:21.959Z,93.90
2019-01-08T16:27:52.277Z,94.33
2019-01-08T16:30:22.990Z,94.92
2019-01-08T16:32:53.603Z,94.94
2019-01-08T16:35:23.773Z,94.80
2019-01-08T16:37:54.162Z,94.50
2019-01-08T16:40:24.952Z,94.74
2019-01-08T16:42:55.390Z,94.85
2019-01-08T16:45:25.703Z,95.25
2019-01-08T16:47:56.271Z,95.03
2019-01-08T16:50:26.529Z,95.52
2019-01-08T16:52:57.068Z,95.79
2019-01-08T16:55:27.428Z,95.27
2019-01-08T16:57:59.275Z,95.38
2019-01-08T17:00:29.648Z,95.45
2019-01-08T17:03:00.986Z,95.55
2019-01-08T17:05:32.908Z,95.54
2019-01-08T17:08:03.206Z,95.34
2019-01-08T17:10:33.520Z,94.96
2019-01-08T17:13:03.796Z,95.18
2019-01-08T17:15:34.582Z,95.40
2019-01-08T17:18:05.403Z,95.56
2019-01-08T17:20:36.158Z,95.53
2019-01-08T17:23:06.440Z,95.71
2019-01-08T17:25:36.727Z,95.65
2019-01-08T17:28:07.373Z,95.12
2019-01-08T17:30:37.758Z,95.45
2019-01-08T17:33:08.052Z,95.58
2019-01-08T17:35:38.309Z,95.33
2019-01-08T17:38:08.619Z,95.13
2019-01-08T17:40:39.359Z,95.04
2019-01-08T17:43:09.817Z,94.93
2019-01-08T17:45:39.972Z,94.74
2019-01-08T17:48:10.396Z,94.34
2019-01-08T17:50:42.398Z,94.48
2019-01-08T17:53:12.971Z,94.28
2019-01-08T17:55:44.875Z,94.24
2019-01-08T17:58:58.521Z,93.98
2019-01-08T18:01:31.705Z,93.93
2019-01-08T18:04:02.234Z,93.76
2019-01-08T18:06:32.909Z,94.09
2019-01-08T18:09:05.170Z,93.50
2019-01-08T18:11:35.359Z,93.51
2019-01-08T18:14:05.998Z,93.24
2019-01-08T18:16:36.295Z,93.85
2019-01-08T18:19:07.011Z,93.84
2019-01-08T18:21:37.527Z,93.72
2019-01-08T18:24:08.153Z,93.78
2019-01-08T18:26:38.829Z,93.57
2019-01-08T18:29:09.292Z,93.19
2019-01-08T18:31:39.818Z,93.54
2019-01-08T18:34:10.151Z,93.78
2019-01-08T18:36:40.522Z,94.10
2019-01-08T18:39:10.838Z,94.31
2019-01-08T18:41:41.138Z,94.46
2019-01-08T18:44:11.686Z,94.65
2019-01-08T18:46:42.125Z,94.38
2019-01-08T18:49:12.387Z,94.66
2019-01-08T18:51:43.227Z,94.38
2019-01-08T18:54:13.917Z,93.87
2019-01-08T18:56:44.255Z,94.47
2019-01-08T18:59:14.746Z,94.37
2019-01-08T19:01:45.313Z,94.38
2019-01-08T19:04:15.668Z,94.60
2019-01-08T19:06:46.092Z,94.68
2019-01-08T19:09:46.503Z,94.38
2019-01-08T19:12:19.714Z,94.55
2019-01-08T19:14:50.342Z,94.41
2019-01-08T19:17:20.853Z,93.59
2019-01-08T19:19:51.252Z,93.72
2019-01-08T19:22:21.678Z,93.84
2019-01-08T19:24:52.096Z,93.64
2019-01-08T19:27:22.403Z,93.42
2019-01-08T19:29:52.783Z,93.08
2019-01-08T19:32:23.070Z,93.08
2019-01-08T19:34:53.608Z,93.54
2019-01-08T19:37:24.033Z,92.76
2019-01-08T19:39:54.371Z,93.06
2019-01-08T19:42:24.924Z,92.21
2019-01-08T19:44:55.401Z,91.88
2019-01-08T19:47:25.985Z,92.26
2019-01-08T19:49:56.406Z,92.20
2019-01-08T19:52:29.032Z,92.01
2019-01-08T19:54:59.894Z,91.95
2019-01-08T19:57:30.516Z,92.00
2019-01-08T20:00:02.039Z,92.34
2019-01-08T20:02:33.405Z,92.25
2019-01-08T20:05:03.995Z,92.11
2019-01-08T20:07:35.294Z,91.33
2019-01-08T20:10:05.778Z,88.16
2019-01-08T20:12:36.087Z,88.16
2019-01-08T20:15:09.233Z,88.03
2019-01-08T20:17:39.881Z,88.38
2019-01-08T20:20:11.137Z,88.01
2019-01-08T20:22:41.374Z,88.22
2019-01-08T20:25:11.801Z,87.41
2019-01-08T20:27:42.492Z,87.61
2019-01-08T20:30:13.012Z,85.98
2019-01-08T20:32:43.214Z,85.10
2019-01-08T20:35:13.679Z,84.94
2019-01-08T20:37:43.877Z,84.54
2019-01-08T20:40:14.584Z,84.71
2019-01-08T20:42:44.932Z,84.42
2019-01-08T20:45:15.402Z,83.60
2019-01-08T20:47:45.731Z,83.11
2019-01-08T20:50:16.082Z,83.29
2019-01-08T20:52:46.645Z,82.64
2019-01-08T20:55:17.106Z,82.54
2019-01-08T20:57:47.387Z,82.33
2019-01-08T21:00:17.837Z,82.03
2019-01-08T21:02:48.488Z,81.48
2019-01-08T21:05:19.332Z,79.92
2019-01-08T21:07:50.944Z,78.84
2019-01-08T21:10:21.346Z,78.83
2019-01-08T21:12:51.911Z,79.26
2019-01-08T21:15:22.435Z,78.58
2019-01-08T21:17:52.789Z,79.29
2019-01-08T21:20:23.014Z,79.75
2019-01-08T21:22:53.204Z,79.18
2019-01-08T21:25:23.501Z,80.12
2019-01-08T21:27:54.041Z,79.81
2019-01-08T21:30:24.535Z,79.48
2019-01-08T21:32:54.883Z,80.48
2019-01-08T21:35:25.162Z,80.26
2019-01-08T21:37:55.459Z,80.67
2019-01-08T21:40:25.799Z,80.59
2019-01-08T21:42:56.188Z,80.41
2019-01-08T21:45:26.780Z,80.08
2019-01-08T21:47:57.977Z,80.66
2019-01-08T21:50:28.213Z,81.25
2019-01-08T21:59:51.069Z,83.77
2019-01-08T22:02:21.313Z,83.99
2019-01-08T22:04:53.240Z,84.03
2019-01-08T22:07:24.012Z,84.06
2019-01-08T22:09:54.718Z,84.22
2019-01-08T22:12:25.210Z,84.07
2019-01-08T22:14:55.791Z,83.80
2019-01-08T22:17:26.717Z,83.45
2019-01-08T22:19:57.304Z,83.79
2019-01-08T22:22:27.648Z,83.82
2019-01-08T22:24:59.544Z,83.41
2019-01-08T22:27:30.449Z,83.09
2019-01-08T22:30:00.921Z,83.17
2019-01-08T22:32:32.996Z,82.81
2019-01-08T22:35:03.341Z,82.53
2019-01-08T22:37:33.591Z,82.76
2019-01-08T22:40:03.867Z,82.35
2019-01-08T22:42:34.105Z,82.06
2019-01-08T22:45:04.398Z,81.30
2019-01-08T22:47:34.719Z,81.10
2019-01-08T22:50:06.709Z,80.96
2019-01-08T22:52:37.832Z,80.89
2019-01-08T22:55:08.218Z,81.87
2019-01-08T22:57:38.983Z,81.19
2019-01-08T23:00:32.789Z,81.83
2019-01-08T23:03:02.972Z,81.60
2019-01-08T23:05:33.221Z,81.25
2019-01-08T23:08:04.787Z,80.80
2019-01-08T23:10:37.305Z,81.00
2019-01-08T23:13:07.604Z,81.19
2019-01-08T23:15:37.982Z,80.62
2019-01-08T23:18:08.249Z,80.67
2019-01-08T23:20:38.953Z,80.71
2019-01-08T23:23:09.135Z,80.42
2019-01-08T23:25:39.582Z,80.52
2019-01-08T23:28:09.897Z,80.32
2019-01-08T23:30:40.197Z,80.51
2019-01-08T23:33:10.778Z,80.46
2019-01-08T23:35:41.092Z,80.08
2019-01-08T23:38:11.348Z,80.07
2019-01-08T23:40:41.662Z,79.71
2019-01-08T23:43:11.807Z,80.17
2019-01-08T23:45:42.143Z,80.20
2019-01-08T23:48:12.367Z,80.55
2019-01-08T23:50:42.772Z,80.62
2019-01-08T23:53:32.909Z,80.40
2019-01-08T23:56:05.924Z,80.46
2019-01-08T23:58:36.421Z,81.11
